Nearby METAR Reports

 

EBAW - Antwerpen, Belgium
Distance from station: NW 22km
Updated: 2019-08-25 04:50
Clear
Clear
 Wind from E
Wind: E 4 km/h
Temperature: 14°C
Dew Point: 13°C
Humidity: 94%
Barometer: 1018 hPa
Clouds: Clear
Visibility: 8 km
2019/08/25 02:50 EBAW 250250Z AUTO 08002KT 8000 // NCD 14/13 Q1018
EBBR - Brussel, Belgium
Distance from station: SW 24km
Updated: 2019-08-25 04:50
Clear
Clear
 Wind from S
Wind: S 7 km/h
Temperature: 15°C
Dew Point: 13°C
Humidity: 88%
Barometer: 1018 hPa
Summary: Clear
Visibility: greater than 10 km
2019/08/25 02:50 EBBR 250250Z 17004KT CAVOK 15/13 Q1018 NOSIG
 
EBDT - Schaffen, Belgium
Distance from station: ESE 26km
Updated: 2019-08-25 04:55
Clear
Clear
 Wind from SSE
Wind: SSE 6 km/h
Temperature: 16°C
Dew Point: 12°C
Humidity: 77%
Barometer: 1018 hPa
Clouds: Clear
Visibility: 10 km
2019/08/25 02:55 EBDT 250255Z AUTO 16003KT 9999 NCD 16/12 Q1018 BLU
EBBE - Beauvechain, Belgium
Distance from station: S 36km
Updated: 2019-08-25 04:55
Clear
Clear
 Wind from varies
Wind: varies 2 km/h
Temperature: 20°C
Dew Point: 13°C
Humidity: 64%
Barometer: 1018 hPa
Clouds: Clear
Visibility: 10 km
2019/08/25 02:55 EBBE 250255Z AUTO VRB01KT 9999 NCD 20/13 Q1018 BLU
 
EHWO - Woensdrecht Rnla, Netherlands
Distance from station: NNW 50km
Updated: 2019-08-25 04:55
Mostly cloudy
Mostly cloudy
 Wind from E
Wind: E 4 km/h
Temperature: 13°C
Dew Point: 12°C
Humidity: 94%
Barometer: 1017 hPa
Clouds: Mostly cloudy
Visibility: 10 km
Cloud details: Mostly cloudy 8839 m
2019/08/25 02:55 EHWO 250255Z AUTO 08002KT 9999 BKN290 13/12 Q1017 BLU
EBBL - Kleine-Brogel, Belgium
Distance from station: ENE 54km
Updated: 2019-08-25 04:55
Clear
Clear
 Wind from varies
Wind: varies 2 km/h
Temperature: 13°C
Dew Point: 12°C
Humidity: 94%
Barometer: 1018 hPa
Clouds: Clear
Visibility: 10 km
2019/08/25 02:55 EBBL 250255Z AUTO VRB01KT 9999 NCD 13/12 Q1018 BLU
 
EHGR - Gilze-Rijen Rnla, Netherlands
Distance from station: NNE 57km
Updated: 2019-08-25 04:55
Partly cloudy
Partly cloudy
 Wind from NE
Wind: NE 2 km/h
Temperature: 14°C
Dew Point: 13°C
Humidity: 94%
Barometer: 1018 hPa
Clouds: Partly cloudy
Visibility: 10 km
Cloud details: Partly cloudy 9754 m
2019/08/25 02:55 EHGR 250255Z AUTO 05001KT 9999 SCT320 14/13 Q1018 BLU
EHEH - Eindhoven Rnlafb, Netherlands
Distance from station: NE 63km
Updated: 2019-08-25 04:55
Clear
Clear
 Wind from calm
Wind: Calm
Temperature: 13°C
Dew Point: 11°C
Humidity: 88%
Barometer: 1018 hPa
Clouds: Clear
Visibility: 10 km
2019/08/25 02:55 EHEH 250255Z AUTO 00000KT 9999 NCD 13/11 Q1018 BLU
 
EBCI - Charleroi, Belgium
Distance from station: SSW 70km
Updated: 2019-08-25 04:50
Clear
Clear
 Wind from varies
Wind: varies 4 km/h
Temperature: 17°C
Dew Point: 14°C
Humidity: 83%
Barometer: 1018 hPa
Summary: Clear
Visibility: greater than 10 km
2019/08/25 02:50 EBCI 250250Z VRB02KT CAVOK 17/14 Q1018 NOSIG
EBLG - Bierset, Belgium
Distance from station: SE 72km
Updated: 2019-08-25 04:50
Clear
Clear
 Wind from SE
Wind: SE 15 km/h, Gust: 43 km/h
Temperature: 19°C
Dew Point: 11°C
Humidity: 60%
Barometer: 1018 hPa
Summary: Clear
Visibility: greater than 10 km
2019/08/25 02:50 EBLG 250250Z 14008G23KT 130V230 CAVOK 19/11 Q1018 NOSIG